Terminal Aerodrome Forecast
Issued by NWS Grand Forks, ND

Home | Current Version | Previous Version | Graphics & Text | Print | Product List | Glossary On
Versions: 1 2 3 4 5 6 7 8 9 10 11 12
000
FTUS43 KFGF 131700
TAFFAR
TAF
KFAR 131725Z 1318/1418 30019G25KT P6SM SCT040
     FM140100 31012KT P6SM BKN040
     FM140800 31007KT P6SM OVC025=

USA.gov is the U.S. government's official web portal to all federal, state and local government web resources and services.